Time;durP1;ratioP1;P1;durP2;ratioP2;P2;SDS_P1;SDS_P2;PMS_P1;PMS_P2;Temp;Humidity;BMP_temperature;BMP_pressure;BME280_temperature;BME280_humidity;BME280_pressure;Samples;Min_cycle;Max_cycle;Signal;HPM_P1;HPM_P2
2022/11/20 00:01:40;;;;;;;31.03;17.30;;;;;;;;;;5010000;28;20611;-68
2022/11/20 00:04:06;;;;;;;31.30;16.90;;;;;;;;;;5021390;28;20522;-68
2022/11/20 00:06:31;;;;;;;32.03;16.60;;;;;;;;;;5012054;28;20564;-68
2022/11/20 00:08:59;;;;;;;29.50;16.00;;;;;;;;;;5020878;28;20560;-68
2022/11/20 00:11:26;;;;;;;29.23;16.00;;;;;;;;;;5018218;28;20181;-68
2022/11/20 00:13:54;;;;;;;28.80;16.43;;;;;;;;;;5025596;28;20638;-68
2022/11/20 00:16:23;;;;;;;29.57;16.23;;;;;;;;;;5021667;28;20256;-68
2022/11/20 00:18:49;;;;;;;28.97;16.27;;;;;;;;;;5021287;28;20410;-68
2022/11/20 00:21:23;;;;;;;30.33;16.20;;;;;;;;;;5013646;28;20596;-68
2022/11/20 00:23:49;;;;;;;32.30;16.27;;;;;;;;;;5029631;28;20190;-68
2022/11/20 00:26:16;;;;;;;30.03;16.53;;;;;;;;;;5020231;28;20178;-68
2022/11/20 00:28:43;;;;;;;32.20;16.20;;;;;;;;;;5015725;28;20202;-69
2022/11/20 00:31:14;;;;;;;32.83;17.07;;;;;;;;;;5021416;28;20336;-69
2022/11/20 00:33:39;;;;;;;29.43;15.80;;;;;;;;;;5025983;28;20618;-69
2022/11/20 00:36:08;;;;;;;30.17;17.13;;;;;;;;;;5015027;28;20234;-69
2022/11/20 00:38:34;;;;;;;32.67;17.40;;;;;;;;;;5017477;28;20241;-69
2022/11/20 00:41:01;;;;;;;29.53;17.30;;;;;;;;;;5018301;28;20182;-68
2022/11/20 00:43:27;;;;;;;32.90;16.77;;;;;;;;;;5029307;28;20301;-68
2022/11/20 00:46:26;;;;;;;39.50;19.60;;;;;;;;;;5027065;28;20709;-69
2022/11/20 00:48:51;;;;;;;36.87;19.07;;;;;;;;;;5003352;28;20213;-69
2022/11/20 00:51:19;;;;;;;38.23;19.27;;;;;;;;;;5039210;28;20185;-69
2022/11/20 00:53:45;;;;;;;36.60;18.93;;;;;;;;;;5026928;28;20186;-69
2022/11/20 00:56:13;;;;;;;41.70;20.00;;;;;;;;;;5017658;28;20525;-69
2022/11/20 00:58:41;;;;;;;35.70;15.27;;;;;;;;;;5027218;28;20386;-69
2022/11/20 01:01:18;;;;;;;36.60;14.47;;;;;;;;;;5015916;28;20193;-69
2022/11/20 01:03:49;;;;;;;40.73;16.07;;;;;;;;;;5024210;28;20192;-69
2022/11/20 01:06:24;;;;;;;30.17;13.00;;;;;;;;;;5017449;28;20178;-69
2022/11/20 01:08:52;;;;;;;31.73;12.70;;;;;;;;;;5027481;28;20178;-69
2022/11/20 01:11:20;;;;;;;34.90;14.37;;;;;;;;;;5014388;28;20181;-69
2022/11/20 01:13:47;;;;;;;34.50;14.43;;;;;;;;;;5029545;28;20182;-69
2022/11/20 01:16:39;;;;;;;36.10;18.37;;;;;;;;;;5012963;28;20661;-70
2022/11/20 01:19:09;;;;;;;37.27;19.10;;;;;;;;;;5014488;28;20199;-69
2022/11/20 01:21:36;;;;;;;38.77;18.93;;;;;;;;;;5015248;28;20252;-69
2022/11/20 01:24:03;;;;;;;36.40;19.17;;;;;;;;;;5020017;28;20190;-69
2022/11/20 01:26:31;;;;;;;38.87;18.93;;;;;;;;;;5022274;28;20194;-69
2022/11/20 01:28:57;;;;;;;38.33;19.17;;;;;;;;;;5018790;28;20198;-69
2022/11/20 01:31:26;;;;;;;31.43;13.00;;;;;;;;;;5026159;28;20188;-69
2022/11/20 01:33:54;;;;;;;37.43;18.97;;;;;;;;;;5027862;28;20186;-69
2022/11/20 01:36:21;;;;;;;31.47;13.93;;;;;;;;;;5014575;28;20256;-69
2022/11/20 01:38:47;;;;;;;32.57;13.63;;;;;;;;;;5027491;28;20470;-69
2022/11/20 01:43:20;;;;;;;32.30;14.37;;;;;;;;;;5027132;28;20178;-69
2022/11/20 01:44:00;;;;;;;33.53;16.83;;;;;;;;;;5019546;28;20233;-69
2022/11/20 01:46:25;;;;;;;35.10;17.87;;;;;;;;;;5022230;28;20186;-69
2022/11/20 01:48:57;;;;;;;35.50;17.47;;;;;;;;;;5020099;28;20209;-69
2022/11/20 01:51:33;;;;;;;32.03;17.33;;;;;;;;;;5019014;28;20186;-69
2022/11/20 01:54:03;;;;;;;34.07;18.37;;;;;;;;;;5021235;28;20498;-69
2022/11/20 01:56:31;;;;;;;32.37;17.33;;;;;;;;;;5018159;28;20181;-69
2022/11/20 01:59:00;;;;;;;30.60;16.33;;;;;;;;;;5017221;28;20261;-70
2022/11/20 02:01:26;;;;;;;30.40;16.73;;;;;;;;;;5017515;28;20179;-69
2022/11/20 02:03:52;;;;;;;32.63;17.10;;;;;;;;;;5023417;28;20200;-70
2022/11/20 02:06:27;;;;;;;29.47;17.03;;;;;;;;;;5028199;28;20262;-71
2022/11/20 02:08:54;;;;;;;32.33;17.43;;;;;;;;;;5022212;28;20197;-69
2022/11/20 02:11:19;;;;;;;33.43;17.87;;;;;;;;;;5026930;28;20650;-69
2022/11/20 02:13:45;;;;;;;31.37;17.67;;;;;;;;;;5025494;28;20232;-69
2022/11/20 02:16:24;;;;;;;34.83;17.83;;;;;;;;;;5011526;28;20186;-69
2022/11/20 02:18:50;;;;;;;32.97;18.00;;;;;;;;;;5018112;28;20602;-69
2022/11/20 02:21:48;;;;;;;33.23;16.70;;;;;;;;;;5027199;28;20186;-69
2022/11/20 02:24:18;;;;;;;33.97;17.13;;;;;;;;;;5021235;28;20665;-70
2022/11/20 02:26:50;;;;;;;33.30;16.87;;;;;;;;;;5006935;28;20186;-70
2022/11/20 02:29:21;;;;;;;30.10;16.00;;;;;;;;;;5023127;28;20202;-72
2022/11/20 02:31:47;;;;;;;32.20;16.93;;;;;;;;;;5024024;28;20438;-70
2022/11/20 02:34:12;;;;;;;31.20;17.27;;;;;;;;;;5014357;28;20533;-70
2022/11/20 02:36:39;;;;;;;32.07;16.40;;;;;;;;;;5023955;28;20622;-69
2022/11/20 02:39:06;;;;;;;31.57;16.77;;;;;;;;;;5018481;28;20220;-69
2022/11/20 02:41:33;;;;;;;31.40;15.63;;;;;;;;;;5019960;28;20595;-70
2022/11/20 02:43:58;;;;;;;26.13;13.97;;;;;;;;;;5025723;28;20297;-71
2022/11/20 02:46:23;;;;;;;25.27;11.40;;;;;;;;;;5021229;28;20257;-70
2022/11/20 02:48:49;;;;;;;23.30;10.97;;;;;;;;;;5025742;28;20256;-71
2022/11/20 02:51:14;;;;;;;26.67;12.13;;;;;;;;;;5010857;28;20185;-71
2022/11/20 02:53:40;;;;;;;24.23;11.33;;;;;;;;;;5021207;28;20193;-71
2022/11/20 02:56:06;;;;;;;26.23;11.77;;;;;;;;;;5015962;28;20182;-71
2022/11/20 02:58:31;;;;;;;25.37;11.93;;;;;;;;;;5024215;28;20700;-72
2022/11/20 03:00:56;;;;;;;22.40;11.67;;;;;;;;;;5020130;28;20174;-72
2022/11/20 03:03:22;;;;;;;27.13;11.63;;;;;;;;;;5020167;28;20178;-71
2022/11/20 03:05:47;;;;;;;24.03;11.43;;;;;;;;;;5015782;28;20379;-71
2022/11/20 03:08:12;;;;;;;23.07;11.03;;;;;;;;;;5011141;28;20191;-71
2022/11/20 03:10:38;;;;;;;22.20;10.77;;;;;;;;;;5018301;28;20191;-72
2022/11/20 03:13:03;;;;;;;25.97;11.20;;;;;;;;;;5026754;28;20220;-72
2022/11/20 03:15:29;;;;;;;23.70;11.37;;;;;;;;;;5018696;28;20193;-71
2022/11/20 03:17:55;;;;;;;25.73;10.97;;;;;;;;;;5024619;28;20205;-71
2022/11/20 03:20:21;;;;;;;24.37;11.37;;;;;;;;;;5017912;28;20306;-71
2022/11/20 03:22:46;;;;;;;28.17;11.93;;;;;;;;;;5013724;28;20187;-71
2022/11/20 03:25:11;;;;;;;28.10;10.87;;;;;;;;;;5030270;28;20193;-71
2022/11/20 03:27:37;;;;;;;26.80;11.70;;;;;;;;;;5019365;28;20179;-72
2022/11/20 03:30:03;;;;;;;29.10;11.60;;;;;;;;;;5025038;28;20202;-72
2022/11/20 03:32:28;;;;;;;28.90;11.80;;;;;;;;;;5021774;28;20666;-71
2022/11/20 03:34:54;;;;;;;23.53;11.07;;;;;;;;;;5018709;28;20229;-72
2022/11/20 03:37:19;;;;;;;28.40;10.83;;;;;;;;;;5018913;28;20186;-72
2022/11/20 03:39:44;;;;;;;26.10;12.00;;;;;;;;;;5021520;28;20189;-72
2022/11/20 03:44:54;;;;;;;29.20;11.80;;;;;;;;;;5021415;28;20676;-72
2022/11/20 03:47:19;;;;;;;28.43;11.50;;;;;;;;;;5027242;28;20505;-72
2022/11/20 03:49:44;;;;;;;25.40;12.03;;;;;;;;;;5030810;28;20642;-72
2022/11/20 03:52:10;;;;;;;29.37;11.93;;;;;;;;;;5027857;28;20186;-72
2022/11/20 03:54:35;;;;;;;26.03;11.47;;;;;;;;;;5015331;28;20190;-72
2022/11/20 03:57:00;;;;;;;31.50;13.23;;;;;;;;;;5014053;28;20682;-71
2022/11/20 03:59:25;;;;;;;34.23;12.37;;;;;;;;;;5020039;28;20191;-72
2022/11/20 04:01:51;;;;;;;27.80;12.30;;;;;;;;;;5025317;28;20195;-72
2022/11/20 04:04:16;;;;;;;25.77;11.40;;;;;;;;;;5016433;28;20186;-72
2022/11/20 04:06:41;;;;;;;28.13;12.30;;;;;;;;;;5013447;28;20270;-72
2022/11/20 04:09:07;;;;;;;30.40;13.23;;;;;;;;;;5016366;28;20210;-72
2022/11/20 04:11:34;;;;;;;26.10;12.00;;;;;;;;;;5029193;28;20185;-71
2022/11/20 04:14:05;;;;;;;27.70;12.40;;;;;;;;;;5025429;28;20599;-72
2022/11/20 04:16:34;;;;;;;29.63;12.83;;;;;;;;;;5022188;28;20258;-72
2022/11/20 04:19:01;;;;;;;28.93;12.80;;;;;;;;;;5016813;28;20685;-72
2022/11/20 04:21:27;;;;;;;28.90;12.17;;;;;;;;;;5019112;28;20249;-72
2022/11/20 04:23:54;;;;;;;30.13;13.70;;;;;;;;;;5009399;28;20210;-72
2022/11/20 04:26:20;;;;;;;27.67;12.80;;;;;;;;;;5017291;28;20179;-72
2022/11/20 04:28:45;;;;;;;29.87;13.90;;;;;;;;;;5011599;28;20198;-72
2022/11/20 04:31:14;;;;;;;30.10;12.87;;;;;;;;;;5010127;28;20289;-72
2022/11/20 04:33:40;;;;;;;26.83;12.70;;;;;;;;;;5011608;28;20363;-72
2022/11/20 04:36:15;;;;;;;31.83;12.73;;;;;;;;;;5009804;28;20237;-70
2022/11/20 04:38:41;;;;;;;29.90;13.47;;;;;;;;;;5021985;28;20196;-70
2022/11/20 04:41:15;;;;;;;30.23;12.83;;;;;;;;;;5025635;28;20193;-70
2022/11/20 04:43:40;;;;;;;31.07;12.43;;;;;;;;;;5023837;28;20556;-72
2022/11/20 04:46:06;;;;;;;31.57;12.87;;;;;;;;;;5012646;28;20190;-70
2022/11/20 04:48:31;;;;;;;28.43;12.23;;;;;;;;;;5017072;28;20194;-70
2022/11/20 04:50:56;;;;;;;29.60;13.50;;;;;;;;;;5018223;28;20565;-71
2022/11/20 04:53:23;;;;;;;28.80;12.90;;;;;;;;;;5015170;28;20213;-70
2022/11/20 04:55:49;;;;;;;28.90;12.63;;;;;;;;;;5024896;28;20564;-70
2022/11/20 04:58:14;;;;;;;30.13;12.50;;;;;;;;;;5013244;28;20190;-71
2022/11/20 05:00:40;;;;;;;33.60;16.73;;;;;;;;;;5025960;28;20186;-70
2022/11/20 05:03:06;;;;;;;36.90;16.90;;;;;;;;;;5019446;28;20228;-71
2022/11/20 05:05:33;;;;;;;32.83;16.40;;;;;;;;;;5014242;28;20205;-70
2022/11/20 05:07:58;;;;;;;34.30;16.20;;;;;;;;;;5022592;28;20181;-70
2022/11/20 05:10:25;;;;;;;33.63;17.13;;;;;;;;;;5012776;28;20282;-71
2022/11/20 05:12:51;;;;;;;28.00;12.17;;;;;;;;;;5014548;28;20269;-71
2022/11/20 05:15:16;;;;;;;29.57;12.70;;;;;;;;;;5019355;28;20682;-71
2022/11/20 05:17:47;;;;;;;23.43;11.30;;;;;;;;;;5014672;28;20190;-71
2022/11/20 05:20:13;;;;;;;27.80;12.53;;;;;;;;;;5016742;28;20398;-72
2022/11/20 05:22:38;;;;;;;25.80;12.40;;;;;;;;;;5015111;28;20217;-71
2022/11/20 05:25:04;;;;;;;26.67;11.80;;;;;;;;;;5013314;28;20536;-70
2022/11/20 05:27:29;;;;;;;26.67;11.97;;;;;;;;;;5012487;28;20422;-71
2022/11/20 05:29:54;;;;;;;28.00;11.67;;;;;;;;;;5012255;28;20198;-71
2022/11/20 05:32:20;;;;;;;27.00;11.00;;;;;;;;;;5024996;28;20213;-71
2022/11/20 05:34:45;;;;;;;23.67;11.90;;;;;;;;;;5015980;28;20186;-71
2022/11/20 05:37:10;;;;;;;23.23;11.17;;;;;;;;;;5017349;28;20254;-71
2022/11/20 05:39:36;;;;;;;27.70;11.40;;;;;;;;;;5015168;28;20269;-71
2022/11/20 05:44:44;;;;;;;28.77;12.37;;;;;;;;;;5013783;28;20265;-71
2022/11/20 05:47:10;;;;;;;27.60;12.50;;;;;;;;;;5012148;28;20183;-70
2022/11/20 05:49:35;;;;;;;28.00;12.63;;;;;;;;;;5014929;28;20203;-71
2022/11/20 05:52:00;;;;;;;30.23;12.37;;;;;;;;;;5018135;28;20665;-71
2022/11/20 05:54:26;;;;;;;26.30;11.60;;;;;;;;;;5012725;28;20187;-71
2022/11/20 05:56:51;;;;;;;28.13;13.47;;;;;;;;;;5011585;28;20182;-71
2022/11/20 05:59:16;;;;;;;26.43;11.57;;;;;;;;;;5017688;28;20635;-71
2022/11/20 06:01:42;;;;;;;27.40;11.90;;;;;;;;;;5014538;28;20198;-71
2022/11/20 06:04:07;;;;;;;23.80;11.70;;;;;;;;;;5017768;28;20193;-71
2022/11/20 06:06:32;;;;;;;23.00;9.83;;;;;;;;;;5026676;28;20186;-71
2022/11/20 06:08:58;;;;;;;22.40;11.60;;;;;;;;;;5025162;28;20204;-70
2022/11/20 06:11:24;;;;;;;26.57;11.43;;;;;;;;;;5026057;28;20196;-71
2022/11/20 06:13:49;;;;;;;26.17;11.93;;;;;;;;;;5022412;28;20564;-70
2022/11/20 06:16:18;;;;;;;30.50;12.40;;;;;;;;;;5019274;28;20211;-70
2022/11/20 06:18:44;;;;;;;28.53;11.90;;;;;;;;;;5022096;28;20563;-71
2022/11/20 06:21:11;;;;;;;24.10;11.33;;;;;;;;;;5008386;28;20220;-71
2022/11/20 06:23:37;;;;;;;24.60;10.77;;;;;;;;;;5012538;28;20622;-71
2022/11/20 06:26:08;;;;;;;24.70;11.60;;;;;;;;;;5010073;28;20179;-71
2022/11/20 06:28:33;;;;;;;28.90;11.30;;;;;;;;;;5010121;28;20562;-71
2022/11/20 06:30:59;;;;;;;24.90;11.60;;;;;;;;;;5020270;28;20205;-70
2022/11/20 06:33:25;;;;;;;24.30;11.83;;;;;;;;;;5016833;28;21044;-70
2022/11/20 06:35:50;;;;;;;25.07;12.23;;;;;;;;;;5026365;28;20827;-70
2022/11/20 06:38:16;;;;;;;25.33;11.67;;;;;;;;;;5025501;28;20272;-70
2022/11/20 06:40:42;;;;;;;26.83;11.27;;;;;;;;;;5027738;28;20624;-71
2022/11/20 06:43:08;;;;;;;34.07;12.50;;;;;;;;;;5020640;28;20185;-71
2022/11/20 06:45:34;;;;;;;29.47;11.57;;;;;;;;;;5018352;28;20702;-70
2022/11/20 06:47:59;;;;;;;25.07;11.20;;;;;;;;;;5016155;28;20268;-71
2022/11/20 06:50:24;;;;;;;27.57;11.60;;;;;;;;;;5019911;28;20704;-71
2022/11/20 06:52:50;;;;;;;29.20;11.57;;;;;;;;;;5012425;28;20487;-70
2022/11/20 06:55:15;;;;;;;27.37;10.87;;;;;;;;;;5027940;28;20213;-70
2022/11/20 06:57:40;;;;;;;25.30;11.37;;;;;;;;;;5016637;28;20197;-71
2022/11/20 07:00:06;;;;;;;28.30;12.43;;;;;;;;;;5026965;28;20182;-72
2022/11/20 07:02:31;;;;;;;26.70;12.33;;;;;;;;;;5022704;28;20214;-72
2022/11/20 07:04:57;;;;;;;25.07;11.43;;;;;;;;;;5014165;28;20174;-72
2022/11/20 07:07:22;;;;;;;26.63;11.73;;;;;;;;;;5028105;28;20316;-70
2022/11/20 07:09:47;;;;;;;34.77;16.37;;;;;;;;;;5022508;28;20277;-73
2022/11/20 07:12:13;;;;;;;33.13;15.90;;;;;;;;;;5018337;28;20179;-70
2022/11/20 07:14:38;;;;;;;26.00;11.80;;;;;;;;;;5017635;28;20183;-70
2022/11/20 07:17:03;;;;;;;27.57;11.57;;;;;;;;;;5020275;28;20189;-70
2022/11/20 07:19:29;;;;;;;27.63;11.90;;;;;;;;;;5014421;28;20178;-70
2022/11/20 07:21:54;;;;;;;27.40;11.67;;;;;;;;;;5028811;28;20258;-71
2022/11/20 07:24:19;;;;;;;25.13;11.90;;;;;;;;;;5024097;28;20634;-71
2022/11/20 07:26:48;;;;;;;25.83;11.67;;;;;;;;;;5022092;28;20249;-71
2022/11/20 07:29:14;;;;;;;28.57;12.50;;;;;;;;;;5011039;28;20312;-71
2022/11/20 07:31:40;;;;;;;26.93;12.10;;;;;;;;;;5029461;28;20312;-70
2022/11/20 07:34:05;;;;;;;26.07;12.00;;;;;;;;;;5025137;28;20661;-71
2022/11/20 07:36:30;;;;;;;25.00;11.90;;;;;;;;;;5021625;28;20312;-71
2022/11/20 07:38:56;;;;;;;29.83;12.57;;;;;;;;;;5021079;28;20183;-71
2022/11/20 07:41:21;;;;;;;28.53;12.20;;;;;;;;;;5026332;28;20205;-71
2022/11/20 07:43:46;;;;;;;28.87;12.17;;;;;;;;;;5022871;28;20183;-72
2022/11/20 07:46:11;;;;;;;27.37;12.13;;;;;;;;;;5024594;28;20190;-70
2022/11/20 07:48:37;;;;;;;28.97;12.07;;;;;;;;;;5021600;28;20189;-71
2022/11/20 07:51:02;;;;;;;29.73;12.57;;;;;;;;;;5025826;28;20206;-72
2022/11/20 07:53:28;;;;;;;30.43;12.60;;;;;;;;;;5018970;28;20179;-72
2022/11/20 07:55:53;;;;;;;27.87;12.90;;;;;;;;;;5028073;28;20559;-72
2022/11/20 07:58:20;;;;;;;29.30;12.93;;;;;;;;;;5014125;28;20638;-72
2022/11/20 08:00:45;;;;;;;29.67;13.53;;;;;;;;;;5027626;28;20222;-71
2022/11/20 08:03:10;;;;;;;33.53;14.07;;;;;;;;;;5027899;28;20210;-71
2022/11/20 08:05:37;;;;;;;31.03;14.73;;;;;;;;;;5009742;28;20528;-69
2022/11/20 08:08:02;;;;;;;29.10;13.87;;;;;;;;;;5011232;28;20241;-70
2022/11/20 08:10:28;;;;;;;30.40;13.77;;;;;;;;;;5021802;28;20214;-70
2022/11/20 08:15:38;;;;;;;31.53;13.20;;;;;;;;;;5015941;28;20229;-71
2022/11/20 08:18:09;;;;;;;29.53;14.27;;;;;;;;;;5024340;28;20634;-71
2022/11/20 08:20:35;;;;;;;26.87;12.73;;;;;;;;;;5016856;28;20236;-71
2022/11/20 08:23:02;;;;;;;26.27;13.93;;;;;;;;;;5013188;28;20199;-70
2022/11/20 08:25:29;;;;;;;29.83;14.87;;;;;;;;;;5013737;28;20181;-70
2022/11/20 08:27:57;;;;;;;27.13;13.10;;;;;;;;;;5021162;28;20193;-70
2022/11/20 08:30:23;;;;;;;30.50;14.33;;;;;;;;;;5023621;28;20202;-71
2022/11/20 08:32:48;;;;;;;30.23;14.20;;;;;;;;;;5023381;28;20216;-70
2022/11/20 08:35:13;;;;;;;29.10;15.07;;;;;;;;;;5019527;28;20232;-70
2022/11/20 08:37:41;;;;;;;36.97;16.57;;;;;;;;;;5015308;28;20198;-70
2022/11/20 08:40:10;;;;;;;34.40;17.47;;;;;;;;;;5017552;28;20261;-70
2022/11/20 08:42:35;;;;;;;37.93;16.67;;;;;;;;;;5017804;28;20182;-70
2022/11/20 08:45:01;;;;;;;33.80;15.77;;;;;;;;;;5023091;28;20179;-70
2022/11/20 08:47:26;;;;;;;35.77;15.87;;;;;;;;;;5020917;28;20640;-70
2022/11/20 08:49:51;;;;;;;39.13;16.80;;;;;;;;;;5022395;28;20229;-70
2022/11/20 08:52:16;;;;;;;30.93;15.70;;;;;;;;;;5017393;28;20228;-69
2022/11/20 08:54:42;;;;;;;33.50;15.67;;;;;;;;;;5018696;28;20191;-69
2022/11/20 08:57:07;;;;;;;30.53;15.90;;;;;;;;;;5015062;28;20672;-69
2022/11/20 08:59:32;;;;;;;31.37;14.80;;;;;;;;;;5009897;28;20245;-69
2022/11/20 09:01:58;;;;;;;34.77;15.30;;;;;;;;;;5011406;28;20201;-69
2022/11/20 09:04:23;;;;;;;35.53;15.83;;;;;;;;;;5017917;28;20174;-68
2022/11/20 09:06:50;;;;;;;32.07;15.83;;;;;;;;;;5022841;28;20179;-71
2022/11/20 09:09:17;;;;;;;29.30;15.00;;;;;;;;;;5016057;28;20198;-69
2022/11/20 09:11:42;;;;;;;35.70;17.03;;;;;;;;;;5022107;28;20200;-69
2022/11/20 09:14:07;;;;;;;37.60;17.07;;;;;;;;;;5013703;28;20257;-68
2022/11/20 09:16:33;;;;;;;33.70;16.53;;;;;;;;;;5017464;28;20201;-68
2022/11/20 09:18:58;;;;;;;34.97;17.43;;;;;;;;;;5023592;28;20175;-68
2022/11/20 09:21:24;;;;;;;36.80;18.70;;;;;;;;;;5012570;28;20240;-68
2022/11/20 09:23:49;;;;;;;37.80;19.27;;;;;;;;;;5020781;28;20232;-68
2022/11/20 09:26:15;;;;;;;37.40;19.37;;;;;;;;;;5022331;28;20206;-68
2022/11/20 09:28:40;;;;;;;35.07;18.30;;;;;;;;;;5008070;28;20647;-68
2022/11/20 09:31:07;;;;;;;35.20;19.23;;;;;;;;;;5009538;28;20201;-68
2022/11/20 09:33:32;;;;;;;36.87;19.53;;;;;;;;;;5028098;28;20356;-68
2022/11/20 09:35:58;;;;;;;33.33;17.40;;;;;;;;;;5023573;28;20317;-68
2022/11/20 09:38:23;;;;;;;35.77;19.80;;;;;;;;;;5025706;28;20182;-69
2022/11/20 09:40:57;;;;;;;32.60;18.13;;;;;;;;;;5017461;28;20179;-68
2022/11/20 09:43:58;;;;;;;36.50;19.27;;;;;;;;;;5023194;28;20236;-68
2022/11/20 09:46:49;;;;;;;31.73;16.37;;;;;;;;;;5015881;28;20571;-69
2022/11/20 09:49:52;;;;;;;32.10;16.57;;;;;;;;;;5009254;28;20198;-69
2022/11/20 09:52:46;;;;;;;31.57;16.67;;;;;;;;;;5014020;28;20190;-67
2022/11/20 09:55:13;;;;;;;34.60;17.23;;;;;;;;;;5007789;28;20261;-68
2022/11/20 09:57:45;;;;;;;30.00;16.60;;;;;;;;;;5017817;28;20288;-67
2022/11/20 10:00:14;;;;;;;34.77;18.00;;;;;;;;;;5021493;28;20618;-67
2022/11/20 10:02:55;;;;;;;32.20;17.13;;;;;;;;;;5018416;28;20249;-67
2022/11/20 10:05:52;;;;;;;30.13;17.77;;;;;;;;;;5008653;28;20182;-68
2022/11/20 10:08:24;;;;;;;31.77;17.60;;;;;;;;;;5020108;28;20179;-66
2022/11/20 10:11:00;;;;;;;29.17;17.47;;;;;;;;;;5007704;28;20235;-68
2022/11/20 10:13:50;;;;;;;30.10;17.27;;;;;;;;;;5010503;28;20642;-69
2022/11/20 10:16:32;;;;;;;33.43;17.33;;;;;;;;;;5008412;28;20190;-70
2022/11/20 10:19:13;;;;;;;32.47;17.37;;;;;;;;;;5017616;28;20179;-69
2022/11/20 10:21:52;;;;;;;30.40;16.33;;;;;;;;;;5008935;28;20201;-69
2022/11/20 10:24:47;;;;;;;26.53;15.93;;;;;;;;;;5018595;28;20179;-67
2022/11/20 10:27:34;;;;;;;30.27;17.37;;;;;;;;;;5011780;28;20273;-67
2022/11/20 10:30:07;;;;;;;27.87;15.67;;;;;;;;;;5007557;28;20260;-67
2022/11/20 10:32:47;;;;;;;25.80;15.63;;;;;;;;;;5018350;28;20245;-67
2022/11/20 10:35:31;;;;;;;25.73;14.70;;;;;;;;;;5018877;28;20638;-67
2022/11/20 10:37:59;;;;;;;27.03;15.87;;;;;;;;;;5017950;28;20817;-67
2022/11/20 10:40:37;;;;;;;25.43;16.10;;;;;;;;;;5012603;28;20178;-67
2022/11/20 10:43:12;;;;;;;23.40;14.43;;;;;;;;;;5017765;28;20653;-67
2022/11/20 10:45:49;;;;;;;25.60;13.80;;;;;;;;;;5016605;28;20255;-67
2022/11/20 10:48:19;;;;;;;24.63;13.87;;;;;;;;;;5018822;28;20793;-67
2022/11/20 10:51:21;;;;;;;27.63;13.93;;;;;;;;;;5021519;28;20202;-67
2022/11/20 10:54:24;;;;;;;23.67;13.53;;;;;;;;;;5007411;28;20728;-67
2022/11/20 10:56:52;;;;;;;25.23;14.00;;;;;;;;;;5019410;28;20186;-67
2022/11/20 10:59:47;;;;;;;24.43;13.57;;;;;;;;;;5023237;28;20202;-67
2022/11/20 11:02:49;;;;;;;25.67;13.00;;;;;;;;;;5015828;28;20435;-67
2022/11/20 11:05:22;;;;;;;23.10;13.50;;;;;;;;;;5013229;28;20189;-67
2022/11/20 11:07:52;;;;;;;25.70;13.47;;;;;;;;;;5016215;28;20197;-66
2022/11/20 11:10:24;;;;;;;21.30;13.13;;;;;;;;;;5007610;28;20234;-66
2022/11/20 11:12:49;;;;;;;22.70;13.87;;;;;;;;;;5010585;28;20183;-68
2022/11/20 11:15:26;;;;;;;24.23;13.60;;;;;;;;;;5020717;28;20247;-67
2022/11/20 11:17:52;;;;;;;25.17;14.43;;;;;;;;;;5013973;28;20228;-67
2022/11/20 11:20:20;;;;;;;25.77;14.87;;;;;;;;;;5019665;28;20296;-67
2022/11/20 11:22:51;;;;;;;23.60;13.93;;;;;;;;;;5018296;28;21090;-67
2022/11/20 11:25:34;;;;;;;24.00;13.07;;;;;;;;;;5021987;28;20872;-67
2022/11/20 11:28:04;;;;;;;22.53;13.53;;;;;;;;;;5020251;28;20189;-67
2022/11/20 11:30:39;;;;;;;23.07;14.27;;;;;;;;;;5026525;28;20281;-67
2022/11/20 11:33:09;;;;;;;22.60;13.67;;;;;;;;;;5026641;28;20237;-67
2022/11/20 11:35:44;;;;;;;23.27;13.63;;;;;;;;;;5026349;28;20697;-67
2022/11/20 11:38:41;;;;;;;23.87;13.80;;;;;;;;;;5024343;28;20174;-69
2022/11/20 11:41:09;;;;;;;23.67;14.73;;;;;;;;;;5013548;28;20226;-67
2022/11/20 11:46:20;;;;;;;25.27;15.10;;;;;;;;;;5022285;28;20201;-69
2022/11/20 11:48:57;;;;;;;25.70;15.17;;;;;;;;;;5027637;28;20463;-69
2022/11/20 11:51:36;;;;;;;24.17;14.57;;;;;;;;;;5019464;28;20219;-70
2022/11/20 11:54:05;;;;;;;25.10;15.23;;;;;;;;;;5019831;28;20196;-70
2022/11/20 11:56:32;;;;;;;24.33;15.37;;;;;;;;;;5011100;28;20468;-69
2022/11/20 11:59:02;;;;;;;23.07;15.13;;;;;;;;;;5012567;28;20187;-70
2022/11/20 12:01:47;;;;;;;22.23;14.87;;;;;;;;;;5007813;28;20535;-70
2022/11/20 12:04:27;;;;;;;26.93;15.73;;;;;;;;;;5017706;28;20239;-70
2022/11/20 12:07:03;;;;;;;22.57;14.33;;;;;;;;;;5010594;28;20183;-68
2022/11/20 12:09:37;;;;;;;24.63;14.23;;;;;;;;;;5019850;28;20670;-67
2022/11/20 12:12:15;;;;;;;22.07;14.37;;;;;;;;;;5007947;28;20183;-67
2022/11/20 12:14:44;;;;;;;19.17;13.10;;;;;;;;;;5019898;28;20563;-68
2022/11/20 12:17:12;;;;;;;24.77;13.70;;;;;;;;;;5012067;28;20178;-68
2022/11/20 12:19:37;;;;;;;22.80;14.00;;;;;;;;;;5017943;28;20189;-68
2022/11/20 12:22:30;;;;;;;18.10;12.73;;;;;;;;;;5028061;28;20190;-68
2022/11/20 12:25:16;;;;;;;19.63;12.70;;;;;;;;;;5026796;28;20246;-70
2022/11/20 12:28:03;;;;;;;19.47;12.47;;;;;;;;;;5023125;28;20265;-70
2022/11/20 12:30:31;;;;;;;17.37;11.90;;;;;;;;;;5021076;28;20862;-70
2022/11/20 12:33:05;;;;;;;19.93;12.23;;;;;;;;;;5021951;28;20203;-68
2022/11/20 12:35:48;;;;;;;16.93;11.57;;;;;;;;;;5020945;28;20225;-68
2022/11/20 12:38:47;;;;;;;18.37;12.20;;;;;;;;;;5025513;28;20170;-68
2022/11/20 12:47:46;;;;;;;17.07;10.90;;;;;;;;;;5020160;28;20197;-70
2022/11/20 12:50:30;;;;;;;17.13;10.93;;;;;;;;;;5013927;28;20845;-71
2022/11/20 12:53:24;;;;;;;14.97;9.90;;;;;;;;;;5023696;28;20236;-70
2022/11/20 12:55:52;;;;;;;14.27;9.53;;;;;;;;;;5017491;28;20201;-68
2022/11/20 12:58:23;;;;;;;17.77;11.57;;;;;;;;;;5024565;28;20182;-70
2022/11/20 13:01:00;;;;;;;15.48;11.65;;;;;;;;;;4326366;28;10000000;-70
2022/11/20 13:03:38;;;;;;;16.30;10.40;;;;;;;;;;5021442;28;20284;-71
2022/11/20 13:06:12;;;;;;;14.70;9.57;;;;;;;;;;5017975;28;20213;-69
2022/11/20 13:08:43;;;;;;;15.07;10.20;;;;;;;;;;5019836;28;20184;-69
2022/11/20 13:11:13;;;;;;;15.87;9.80;;;;;;;;;;5015229;28;20206;-69
2022/11/20 13:14:06;;;;;;;15.40;9.53;;;;;;;;;;5020053;28;20523;-70
2022/11/20 13:16:40;;;;;;;15.13;9.80;;;;;;;;;;5022879;28;20708;-69
2022/11/20 13:19:11;;;;;;;15.43;10.40;;;;;;;;;;5018477;28;20290;-69
2022/11/20 13:21:43;;;;;;;15.00;9.70;;;;;;;;;;5024986;28;20547;-69
2022/11/20 13:24:30;;;;;;;15.17;10.10;;;;;;;;;;5025307;28;20182;-69
2022/11/20 13:27:07;;;;;;;14.27;9.53;;;;;;;;;;5017484;28;20241;-69
2022/11/20 13:29:35;;;;;;;15.37;10.13;;;;;;;;;;5012265;28;20296;-69
2022/11/20 13:32:19;;;;;;;14.93;9.97;;;;;;;;;;5012414;28;20210;-70
2022/11/20 13:34:56;;;;;;;16.60;10.43;;;;;;;;;;5020756;28;20457;-69
2022/11/20 13:37:34;;;;;;;16.80;10.87;;;;;;;;;;5015019;28;20182;-69
2022/11/20 13:40:08;;;;;;;15.57;10.37;;;;;;;;;;5021590;28;20178;-69
2022/11/20 13:42:50;;;;;;;13.77;9.60;;;;;;;;;;5020029;28;20209;-69
2022/11/20 13:45:30;;;;;;;15.50;9.67;;;;;;;;;;5019713;28;20665;-69
2022/11/20 13:48:00;;;;;;;15.43;9.57;;;;;;;;;;5025897;28;20629;-69
2022/11/20 13:50:40;;;;;;;14.33;9.87;;;;;;;;;;5018345;28;20203;-69
2022/11/20 13:53:24;;;;;;;13.53;9.20;;;;;;;;;;5011337;28;20193;-69
2022/11/20 13:56:00;;;;;;;17.03;10.63;;;;;;;;;;5016737;28;20661;-68
2022/11/20 13:58:52;;;;;;;15.13;10.43;;;;;;;;;;5017074;28;20197;-68
2022/11/20 14:01:26;;;;;;;15.87;9.30;;;;;;;;;;5012825;28;20608;-69
2022/11/20 14:03:52;;;;;;;16.23;10.70;;;;;;;;;;5023985;28;20243;-69
2022/11/20 14:06:31;;;;;;;14.90;9.97;;;;;;;;;;5023954;28;20190;-69
2022/11/20 14:08:58;;;;;;;16.80;10.67;;;;;;;;;;5012952;28;20405;-69
2022/11/20 14:11:27;;;;;;;15.97;9.73;;;;;;;;;;5016015;28;20701;-68
2022/11/20 14:13:57;;;;;;;16.23;9.90;;;;;;;;;;5014630;28;20194;-69
2022/11/20 14:16:23;;;;;;;15.50;9.83;;;;;;;;;;5014519;28;20192;-68
2022/11/20 14:18:49;;;;;;;16.67;10.37;;;;;;;;;;5008438;28;20642;-68
2022/11/20 14:21:29;;;;;;;16.70;10.07;;;;;;;;;;5010627;28;20611;-69
2022/11/20 14:24:05;;;;;;;17.10;10.30;;;;;;;;;;5021344;28;20732;-69
2022/11/20 14:26:31;;;;;;;15.67;10.03;;;;;;;;;;5017203;28;20184;-68
2022/11/20 14:28:56;;;;;;;15.57;10.10;;;;;;;;;;5019922;28;20194;-69
2022/11/20 14:31:27;;;;;;;18.67;10.77;;;;;;;;;;5008117;28;20597;-69
2022/11/20 14:33:53;;;;;;;18.77;11.00;;;;;;;;;;5016066;28;20196;-68
2022/11/20 14:36:23;;;;;;;18.03;10.67;;;;;;;;;;5008548;28;20594;-68
2022/11/20 14:38:48;;;;;;;20.57;11.30;;;;;;;;;;5013795;28;20697;-68
2022/11/20 14:41:20;;;;;;;20.57;11.43;;;;;;;;;;5017697;28;20186;-68
2022/11/20 14:43:56;;;;;;;22.30;12.07;;;;;;;;;;5023948;28;20174;-69
2022/11/20 14:46:22;;;;;;;22.13;12.13;;;;;;;;;;5017815;28;20205;-68
2022/11/20 14:48:51;;;;;;;20.80;12.53;;;;;;;;;;5020449;28;20228;-68
2022/11/20 14:51:46;;;;;;;20.50;12.43;;;;;;;;;;5022677;28;20316;-68
2022/11/20 14:54:21;;;;;;;21.57;12.63;;;;;;;;;;5011861;28;20420;-68